createdAt,value
2017-08-28T00:00:12.811Z,0
2017-08-28T00:01:14.466Z,0
2017-08-28T00:02:16.116Z,0
2017-08-28T00:03:17.765Z,0
2017-08-28T00:04:19.423Z,0
2017-08-28T00:05:21.084Z,0
2017-08-28T00:06:22.724Z,0
2017-08-28T00:07:24.381Z,0
2017-08-28T00:08:26.029Z,0
2017-08-28T00:09:27.682Z,0
2017-08-28T00:10:29.328Z,0
2017-08-28T00:11:30.986Z,0
2017-08-28T00:12:32.638Z,0
2017-08-28T00:13:34.293Z,0
2017-08-28T00:14:35.948Z,0
2017-08-28T00:15:37.602Z,0
2017-08-28T00:16:39.249Z,0
2017-08-28T00:17:40.901Z,0
2017-08-28T00:18:42.561Z,0
2017-08-28T00:19:44.214Z,0
2017-08-28T00:20:45.874Z,0
2017-08-28T00:21:47.526Z,0
2017-08-28T00:22:49.185Z,0
2017-08-28T00:23:50.847Z,0
2017-08-28T00:24:52.494Z,0
2017-08-28T00:25:54.149Z,0
2017-08-28T00:26:55.804Z,0
2017-08-28T00:27:57.457Z,0
2017-08-28T00:28:59.112Z,0
2017-08-28T00:30:00.757Z,0
2017-08-28T00:31:02.410Z,0
2017-08-28T00:32:04.071Z,0
2017-08-28T00:33:05.732Z,0
2017-08-28T00:34:07.381Z,0
2017-08-28T00:35:09.033Z,0
2017-08-28T00:36:10.695Z,0
2017-08-28T00:37:12.361Z,0
2017-08-28T00:38:14.019Z,0
2017-08-28T00:39:15.667Z,0
2017-08-28T00:40:17.324Z,0
2017-08-28T00:41:18.983Z,0
2017-08-28T00:42:20.687Z,0
2017-08-28T00:43:22.346Z,0
2017-08-28T00:44:24.007Z,0
2017-08-28T00:45:25.661Z,0
2017-08-28T00:46:27.311Z,0
2017-08-28T00:47:28.970Z,0
2017-08-28T00:48:30.619Z,0
2017-08-28T00:49:32.272Z,0
2017-08-28T00:50:33.919Z,0
2017-08-28T00:51:35.581Z,0
2017-08-28T00:52:37.231Z,0
2017-08-28T00:53:38.886Z,0
2017-08-28T00:54:40.543Z,0
2017-08-28T00:55:42.191Z,0
2017-08-28T00:56:43.852Z,0
2017-08-28T00:57:45.518Z,0
2017-08-28T00:58:47.170Z,0
2017-08-28T00:59:48.824Z,0
2017-08-28T01:00:50.485Z,0
2017-08-28T01:01:52.147Z,0
2017-08-28T01:02:53.805Z,0
2017-08-28T01:03:55.476Z,0
2017-08-28T01:04:57.134Z,0
2017-08-28T01:05:58.803Z,0
2017-08-28T01:07:00.502Z,0
2017-08-28T01:08:02.149Z,0
2017-08-28T01:09:03.801Z,0
2017-08-28T01:10:05.456Z,0
2017-08-28T01:11:07.113Z,0
2017-08-28T01:12:08.768Z,0
2017-08-28T01:13:10.431Z,0
2017-08-28T01:14:12.079Z,0
2017-08-28T01:15:13.740Z,0
2017-08-28T01:16:15.398Z,0
2017-08-28T01:17:17.057Z,0
2017-08-28T01:18:18.719Z,0
2017-08-28T01:19:20.376Z,0
2017-08-28T01:20:22.024Z,0
2017-08-28T01:21:23.681Z,0
2017-08-28T01:22:25.330Z,0
2017-08-28T01:23:26.992Z,0
2017-08-28T01:24:28.646Z,0
2017-08-28T01:25:30.304Z,0
2017-08-28T01:26:31.952Z,0
2017-08-28T01:27:33.611Z,0
2017-08-28T01:28:35.259Z,0
2017-08-28T01:29:36.915Z,0
2017-08-28T01:30:38.569Z,0
2017-08-28T01:31:40.219Z,0
2017-08-28T01:32:41.878Z,0
2017-08-28T01:33:43.530Z,0
2017-08-28T01:34:45.186Z,0
2017-08-28T01:35:46.845Z,0
2017-08-28T01:36:48.503Z,0
2017-08-28T01:37:50.150Z,0
2017-08-28T01:38:51.801Z,0
2017-08-28T01:39:53.453Z,0
2017-08-28T01:40:55.111Z,0
2017-08-28T01:41:56.766Z,0
2017-08-28T01:42:58.413Z,0
2017-08-28T01:44:00.130Z,0
2017-08-28T01:45:01.778Z,0
2017-08-28T01:46:03.434Z,0
2017-08-28T01:47:05.097Z,0
2017-08-28T01:48:06.751Z,0
2017-08-28T01:49:08.408Z,0
2017-08-28T01:50:10.051Z,0
2017-08-28T01:51:11.710Z,0
2017-08-28T01:52:13.361Z,0
2017-08-28T01:53:15.010Z,0
2017-08-28T01:54:16.662Z,0
2017-08-28T01:55:18.311Z,0
2017-08-28T02:01:54.957Z,0
2017-08-28T02:02:56.599Z,0
2017-08-28T02:04:48.417Z,0
2017-08-28T02:05:50.057Z,0
2017-08-28T02:06:51.705Z,0
2017-08-28T02:07:53.357Z,0
2017-08-28T02:08:55.016Z,0
2017-08-28T02:09:56.704Z,0
2017-08-28T02:10:58.331Z,0
2017-08-28T02:11:59.999Z,0
2017-08-28T02:13:01.646Z,0
2017-08-28T02:14:03.305Z,0
2017-08-28T02:15:04.953Z,0
2017-08-28T02:16:06.609Z,0
2017-08-28T02:17:08.268Z,0
2017-08-28T02:18:09.931Z,0
2017-08-28T02:19:11.584Z,0
2017-08-28T02:20:13.233Z,0
2017-08-28T02:21:14.887Z,0
2017-08-28T02:22:16.550Z,0
2017-08-28T02:23:18.207Z,0
2017-08-28T02:24:19.861Z,0
2017-08-28T02:25:21.513Z,0
2017-08-28T02:26:23.184Z,0
2017-08-28T02:27:24.838Z,0
2017-08-28T02:28:26.554Z,0
2017-08-28T02:29:28.211Z,0
2017-08-28T02:30:29.862Z,0
2017-08-28T02:31:31.522Z,0
2017-08-28T02:32:33.169Z,0
2017-08-28T02:33:34.833Z,0
2017-08-28T02:34:36.488Z,0
2017-08-28T02:35:38.144Z,0
2017-08-28T02:36:39.798Z,0
2017-08-28T02:37:41.447Z,0
2017-08-28T02:38:43.098Z,0
2017-08-28T02:39:44.742Z,0
2017-08-28T02:40:46.397Z,0
2017-08-28T02:41:48.045Z,0
2017-08-28T02:42:49.704Z,0
2017-08-28T02:43:51.353Z,0
2017-08-28T02:44:53.013Z,0
2017-08-28T02:45:54.674Z,0
2017-08-28T02:46:56.328Z,0
2017-08-28T02:47:57.985Z,0
2017-08-28T02:48:59.635Z,0
2017-08-28T02:50:01.280Z,0
2017-08-28T02:51:02.935Z,0
2017-08-28T02:52:04.583Z,0
2017-08-28T02:53:06.236Z,0
2017-08-28T02:54:07.889Z,0
2017-08-28T02:55:09.539Z,0
2017-08-28T02:56:11.194Z,0
2017-08-28T02:57:12.842Z,0
2017-08-28T02:58:14.500Z,0
2017-08-28T02:59:16.162Z,0
2017-08-28T03:00:17.816Z,0
2017-08-28T03:01:19.478Z,0
2017-08-28T03:02:21.135Z,0
2017-08-28T03:03:22.785Z,0
2017-08-28T03:04:24.447Z,0
2017-08-28T03:05:26.096Z,0
2017-08-28T03:06:27.747Z,0
2017-08-28T03:07:29.418Z,0
2017-08-28T03:08:31.078Z,0
2017-08-28T03:09:32.737Z,0
2017-08-28T03:10:34.401Z,0
2017-08-28T03:11:36.053Z,0
2017-08-28T03:12:37.708Z,0
2017-08-28T03:13:39.357Z,0
2017-08-28T03:14:41.010Z,0
2017-08-28T03:15:42.681Z,0
2017-08-28T03:16:44.345Z,0
2017-08-28T03:17:45.997Z,0
2017-08-28T03:18:47.645Z,0
2017-08-28T03:19:49.303Z,0
2017-08-28T03:20:50.956Z,0
2017-08-28T03:21:53.385Z,0
2017-08-28T03:22:55.038Z,0
2017-08-28T03:23:56.698Z,0
2017-08-28T03:24:58.347Z,0
2017-08-28T03:25:59.994Z,0
2017-08-28T03:27:01.648Z,0
2017-08-28T03:28:03.300Z,0
2017-08-28T03:29:04.955Z,0
2017-08-28T03:30:06.610Z,0
2017-08-28T03:31:08.263Z,0
2017-08-28T03:32:09.907Z,0
2017-08-28T03:33:11.556Z,0
2017-08-28T03:34:13.216Z,0
2017-08-28T03:35:14.877Z,0
2017-08-28T03:36:16.525Z,0
2017-08-28T03:37:18.179Z,0
2017-08-28T03:38:19.833Z,0
2017-08-28T03:39:21.478Z,0
2017-08-28T03:40:23.130Z,0
2017-08-28T03:41:24.785Z,0
2017-08-28T03:42:26.444Z,0
2017-08-28T03:43:28.102Z,0
2017-08-28T03:44:29.752Z,0
2017-08-28T03:45:31.409Z,0
2017-08-28T03:46:33.059Z,0
2017-08-28T03:47:34.708Z,0
2017-08-28T03:48:36.363Z,0
2017-08-28T03:49:38.018Z,0
2017-08-28T03:50:39.672Z,0
2017-08-28T03:51:41.321Z,0
2017-08-28T03:52:42.974Z,0
2017-08-28T03:53:44.637Z,0
2017-08-28T03:54:46.292Z,0
2017-08-28T03:55:47.946Z,0
2017-08-28T03:56:49.600Z,0
2017-08-28T03:57:51.252Z,0
2017-08-28T03:58:52.903Z,0
2017-08-28T03:59:54.554Z,0
2017-08-28T04:00:56.201Z,0
2017-08-28T04:01:57.865Z,0
2017-08-28T04:02:59.520Z,0
2017-08-28T04:04:01.165Z,0
2017-08-28T04:05:02.849Z,0
2017-08-28T04:06:04.479Z,0
2017-08-28T04:07:06.137Z,0
2017-08-28T04:08:07.786Z,0
2017-08-28T04:09:09.441Z,0
2017-08-28T04:10:11.092Z,0
2017-08-28T04:11:12.747Z,0
2017-08-28T04:12:14.400Z,0
2017-08-28T04:13:16.059Z,0
2017-08-28T04:14:17.712Z,0
2017-08-28T04:15:19.361Z,0
2017-08-28T04:16:21.012Z,0
2017-08-28T04:17:22.666Z,0
2017-08-28T04:18:24.316Z,0
2017-08-28T04:19:25.969Z,0
2017-08-28T04:20:27.622Z,0
2017-08-28T04:21:29.279Z,0
2017-08-28T04:22:30.934Z,0
2017-08-28T04:23:32.595Z,0
2017-08-28T04:24:34.248Z,5
2017-08-28T04:25:35.901Z,5
2017-08-28T04:26:37.558Z,5
2017-08-28T04:27:39.218Z,5
2017-08-28T04:28:40.870Z,5
2017-08-28T04:29:42.521Z,5
2017-08-28T04:30:44.180Z,10
2017-08-28T04:31:45.837Z,10
2017-08-28T04:32:47.488Z,10
2017-08-28T04:33:49.146Z,10
2017-08-28T04:34:50.802Z,10
2017-08-28T04:35:52.457Z,15
2017-08-28T04:36:54.113Z,15
2017-08-28T04:37:55.773Z,15
2017-08-28T04:38:57.435Z,20
2017-08-28T04:39:59.082Z,20
2017-08-28T04:41:00.748Z,20
2017-08-28T04:42:02.407Z,25
2017-08-28T04:43:04.067Z,25
2017-08-28T04:44:05.717Z,25
2017-08-28T04:45:07.379Z,30
2017-08-28T04:46:09.049Z,30
2017-08-28T04:47:10.713Z,30
2017-08-28T04:48:12.371Z,35
2017-08-28T04:49:14.035Z,35
2017-08-28T04:50:15.696Z,40
2017-08-28T04:51:17.354Z,40
2017-08-28T04:52:19.015Z,45
2017-08-28T04:53:20.683Z,45
2017-08-28T04:54:22.341Z,50
2017-08-28T04:55:24.001Z,50
2017-08-28T04:56:25.671Z,55
2017-08-28T04:57:27.334Z,55
2017-08-28T04:58:29.000Z,60
2017-08-28T04:59:30.655Z,60
2017-08-28T05:00:32.316Z,65
2017-08-28T05:01:33.975Z,65
2017-08-28T05:02:35.786Z,70
2017-08-28T05:03:37.450Z,70
2017-08-28T05:04:40.453Z,75
2017-08-28T05:05:45.298Z,75
2017-08-28T05:06:49.726Z,80
2017-08-28T05:07:54.905Z,85
2017-08-28T05:08:56.412Z,90
2017-08-28T05:09:58.063Z,90
2017-08-28T05:10:59.731Z,90
2017-08-28T05:12:13.326Z,90
2017-08-28T05:13:16.664Z,95
2017-08-28T05:14:18.333Z,95
2017-08-28T05:15:20.355Z,100
2017-08-28T05:16:22.105Z,105
2017-08-28T05:17:23.780Z,105
2017-08-28T05:18:56.687Z,110
2017-08-28T05:19:58.349Z,115
2017-08-28T05:21:00.006Z,115
2017-08-28T05:22:01.662Z,120
2017-08-28T05:23:03.328Z,125
2017-08-28T05:24:04.979Z,125
2017-08-28T05:25:06.640Z,130
2017-08-28T05:26:08.302Z,130
2017-08-28T05:27:09.962Z,140
2017-08-28T05:28:33.168Z,150
2017-08-28T05:29:59.582Z,165
2017-08-28T05:31:01.300Z,170
2017-08-28T05:32:02.953Z,175
2017-08-28T05:33:05.024Z,180
2017-08-28T05:34:06.691Z,180
2017-08-28T05:35:08.363Z,185
2017-08-28T05:36:10.024Z,190
2017-08-28T05:37:11.686Z,190
2017-08-28T05:38:14.292Z,190
2017-08-28T05:39:15.964Z,195
2017-08-28T05:40:17.617Z,200
2017-08-28T05:41:19.319Z,200
2017-08-28T05:42:20.982Z,205
2017-08-28T05:43:23.511Z,205
2017-08-28T05:44:25.174Z,210
2017-08-28T05:45:26.845Z,215
2017-08-28T05:46:28.498Z,220
2017-08-28T05:47:30.162Z,220
2017-08-28T05:48:32.585Z,225
2017-08-28T05:49:34.254Z,225
2017-08-28T05:50:35.923Z,230
2017-08-28T05:51:37.587Z,230
2017-08-28T05:52:39.299Z,235
2017-08-28T05:53:40.962Z,240
2017-08-28T05:54:43.271Z,245
2017-08-28T06:01:31.473Z,265
2017-08-28T06:02:33.173Z,270
2017-08-28T06:03:34.821Z,270
2017-08-28T06:04:36.481Z,275
2017-08-28T06:05:38.145Z,275
2017-08-28T06:06:40.414Z,275
2017-08-28T06:07:42.076Z,280
2017-08-28T06:08:43.749Z,280
2017-08-28T06:09:45.404Z,285
2017-08-28T06:10:47.117Z,285
2017-08-28T06:11:48.886Z,290
2017-08-28T06:12:54.173Z,295
2017-08-28T06:13:55.840Z,295
2017-08-28T06:14:57.518Z,300
2017-08-28T06:16:00.852Z,305
2017-08-28T06:17:02.518Z,305
2017-08-28T06:18:04.194Z,310
2017-08-28T06:19:05.858Z,315
2017-08-28T06:20:07.713Z,315
2017-08-28T06:21:13.708Z,320
2017-08-28T06:22:17.077Z,325
2017-08-28T06:23:19.279Z,325
2017-08-28T06:24:20.943Z,330
2017-08-28T06:25:22.626Z,330
2017-08-28T06:26:24.312Z,335
2017-08-28T06:27:25.972Z,340
2017-08-28T06:28:27.636Z,340
2017-08-28T06:29:29.298Z,340
2017-08-28T06:30:30.980Z,345
2017-08-28T06:31:32.644Z,345
2017-08-28T06:32:34.314Z,355
2017-08-28T06:33:35.976Z,350
2017-08-28T06:34:37.642Z,355
2017-08-28T06:35:39.318Z,355
2017-08-28T06:36:40.984Z,360
2017-08-28T06:37:42.650Z,360
2017-08-28T06:38:44.316Z,365
2017-08-28T06:39:45.976Z,365
2017-08-28T06:40:47.637Z,370
2017-08-28T06:41:49.301Z,370
2017-08-28T06:42:50.967Z,375
2017-08-28T06:43:52.637Z,375
2017-08-28T06:44:54.300Z,380
2017-08-28T06:45:55.962Z,390
2017-08-28T06:46:57.625Z,385
2017-08-28T06:47:59.299Z,385
2017-08-28T06:49:00.977Z,390
2017-08-28T06:50:02.642Z,390
2017-08-28T06:51:04.318Z,395
2017-08-28T06:52:05.984Z,400
2017-08-28T06:53:07.655Z,400
2017-08-28T06:54:09.312Z,405
2017-08-28T06:55:10.982Z,410
2017-08-28T06:56:12.646Z,415
2017-08-28T06:57:14.322Z,415
2017-08-28T06:58:15.996Z,415
2017-08-28T06:59:17.655Z,420
2017-08-28T07:00:19.319Z,425
2017-08-28T07:01:20.992Z,425
2017-08-28T07:02:22.676Z,425
2017-08-28T07:03:24.350Z,425
2017-08-28T07:04:26.012Z,430
2017-08-28T07:05:27.679Z,435
2017-08-28T07:06:29.361Z,435
2017-08-28T07:07:31.037Z,440
2017-08-28T07:08:32.701Z,445
2017-08-28T07:09:34.369Z,445
2017-08-28T07:10:36.034Z,445
2017-08-28T07:11:37.704Z,450
2017-08-28T07:12:39.370Z,450
2017-08-28T07:13:41.052Z,450
2017-08-28T07:14:42.715Z,450
2017-08-28T07:15:44.376Z,455
2017-08-28T07:16:46.049Z,460
2017-08-28T07:17:47.725Z,460
2017-08-28T07:18:49.384Z,465
2017-08-28T07:19:51.062Z,465
2017-08-28T07:20:52.722Z,470
2017-08-28T07:21:54.393Z,470
2017-08-28T07:22:56.061Z,470
2017-08-28T07:23:57.746Z,475
2017-08-28T07:24:59.408Z,475
2017-08-28T07:26:01.085Z,480
2017-08-28T07:27:02.759Z,480
2017-08-28T07:28:04.420Z,485
2017-08-28T07:29:06.086Z,485
2017-08-28T07:30:07.752Z,490
2017-08-28T07:31:09.422Z,500
2017-08-28T07:32:11.084Z,495
2017-08-28T07:33:12.756Z,500
2017-08-28T07:34:14.431Z,500
2017-08-28T07:35:16.103Z,500
2017-08-28T07:36:17.798Z,505
2017-08-28T07:37:19.467Z,505
2017-08-28T07:38:21.134Z,505
2017-08-28T07:39:22.805Z,505
2017-08-28T07:40:24.477Z,510
2017-08-28T07:41:26.151Z,520
2017-08-28T07:42:27.839Z,515
2017-08-28T07:43:29.495Z,520
2017-08-28T07:44:31.162Z,520
2017-08-28T07:45:32.839Z,525
2017-08-28T07:46:34.893Z,530
2017-08-28T07:47:36.566Z,535
2017-08-28T07:48:38.240Z,535
2017-08-28T07:49:40.146Z,540
2017-08-28T07:50:41.834Z,545
2017-08-28T07:51:43.507Z,555
2017-08-28T07:52:45.194Z,560
2017-08-28T07:53:46.864Z,555
2017-08-28T07:54:48.537Z,560
2017-08-28T07:55:50.201Z,570
2017-08-28T07:56:51.881Z,570
2017-08-28T07:57:53.559Z,575
2017-08-28T07:58:55.232Z,580
2017-08-28T07:59:56.908Z,585
2017-08-28T08:00:58.641Z,590
2017-08-28T08:02:00.328Z,595
2017-08-28T08:03:02.001Z,600
2017-08-28T08:04:03.678Z,605
2017-08-28T08:05:05.354Z,610
2017-08-28T08:06:07.027Z,615
2017-08-28T08:07:08.719Z,620
2017-08-28T08:08:10.373Z,625
2017-08-28T08:09:12.044Z,630
2017-08-28T08:10:13.725Z,640
2017-08-28T08:11:15.418Z,650
2017-08-28T08:12:17.085Z,655
2017-08-28T08:13:18.766Z,665
2017-08-28T08:14:20.437Z,675
2017-08-28T08:15:22.112Z,685
2017-08-28T08:16:23.795Z,705
2017-08-28T08:17:25.479Z,720
2017-08-28T08:18:27.155Z,745
2017-08-28T08:19:28.829Z,765
2017-08-28T08:20:30.507Z,795
2017-08-28T08:21:32.173Z,825
2017-08-28T08:22:33.854Z,870
2017-08-28T08:23:35.538Z,915
2017-08-28T08:24:37.224Z,990
2017-08-28T08:25:38.904Z,1055
2017-08-28T08:26:40.585Z,1110
2017-08-28T08:27:42.251Z,1180
2017-08-28T08:28:43.929Z,1335
2017-08-28T08:29:45.608Z,1560
2017-08-28T08:30:47.928Z,1870
2017-08-28T08:31:49.603Z,2185
2017-08-28T08:32:51.280Z,2425
2017-08-28T08:33:52.955Z,2555
2017-08-28T08:34:54.631Z,2615
2017-08-28T08:35:56.328Z,2850
2017-08-28T08:36:58.009Z,3155
2017-08-28T08:37:59.689Z,3300
2017-08-28T08:39:01.356Z,3465
2017-08-28T08:40:03.036Z,3415
2017-08-28T08:41:04.725Z,3300
2017-08-28T08:42:06.414Z,3175
2017-08-28T08:43:08.100Z,3090
2017-08-28T08:44:09.784Z,2905
2017-08-28T08:45:11.493Z,2830
2017-08-28T08:46:13.178Z,2690
2017-08-28T08:47:14.854Z,2480
2017-08-28T08:48:16.526Z,2285
2017-08-28T08:49:18.198Z,2150
2017-08-28T08:50:19.875Z,2000
2017-08-28T08:51:21.564Z,1910
2017-08-28T08:52:23.256Z,1905
2017-08-28T08:53:24.939Z,1890
2017-08-28T08:54:26.624Z,1830
2017-08-28T08:55:28.302Z,1835
2017-08-28T08:56:29.981Z,1805
2017-08-28T08:57:31.658Z,1840
2017-08-28T08:58:33.344Z,1830
2017-08-28T08:59:35.029Z,1820
2017-08-28T09:00:36.714Z,1910
2017-08-28T09:01:38.402Z,1950
2017-08-28T09:02:40.087Z,1795
2017-08-28T09:03:41.798Z,1705
2017-08-28T09:04:43.468Z,1705
2017-08-28T09:05:45.147Z,1675
2017-08-28T09:06:46.825Z,1610
2017-08-28T09:07:48.505Z,1575
2017-08-28T09:08:50.187Z,1565
2017-08-28T09:09:51.878Z,1575
2017-08-28T09:10:53.541Z,1530
2017-08-28T09:11:55.218Z,1510
2017-08-28T09:12:56.903Z,1505
2017-08-28T09:13:58.594Z,1475
2017-08-28T09:15:00.274Z,1465
2017-08-28T09:16:01.952Z,1475
2017-08-28T09:17:03.639Z,1475
2017-08-28T09:18:05.321Z,1495
2017-08-28T09:19:07.006Z,1540
2017-08-28T09:20:08.726Z,1550
2017-08-28T09:21:10.414Z,1500
2017-08-28T09:22:12.089Z,1475
2017-08-28T09:23:13.768Z,1485
2017-08-28T09:24:15.489Z,1520
2017-08-28T09:25:17.168Z,1540
2017-08-28T09:26:18.843Z,1540
2017-08-28T09:27:20.532Z,1560
2017-08-28T09:28:22.212Z,1585
2017-08-28T09:29:23.890Z,1575
2017-08-28T09:30:25.593Z,1605
2017-08-28T09:31:27.265Z,1585
2017-08-28T09:32:28.944Z,1615
2017-08-28T09:33:30.624Z,1655
2017-08-28T09:34:32.301Z,1645
2017-08-28T09:35:33.980Z,1635
2017-08-28T09:36:35.667Z,1675
2017-08-28T09:37:37.352Z,1715
2017-08-28T09:38:39.052Z,1765
2017-08-28T09:39:40.726Z,1845
2017-08-28T09:40:42.412Z,1950
2017-08-28T09:41:44.083Z,2010
2017-08-28T09:42:45.764Z,1970
2017-08-28T09:43:47.452Z,1920
2017-08-28T09:44:49.141Z,1885
2017-08-28T09:45:50.826Z,2010
2017-08-28T09:47:07.335Z,2025
2017-08-28T09:48:09.005Z,2070
2017-08-28T09:49:10.681Z,2075
2017-08-28T09:50:12.355Z,2055
2017-08-28T09:51:14.030Z,2035
2017-08-28T09:52:15.717Z,2000
2017-08-28T09:53:17.395Z,1965
2017-08-28T09:54:19.108Z,1985
2017-08-28T10:01:08.609Z,1935
2017-08-28T10:02:10.284Z,1930
2017-08-28T10:04:02.181Z,1960
2017-08-28T10:05:03.868Z,1970
2017-08-28T10:06:05.579Z,1965
2017-08-28T10:07:07.233Z,1995
2017-08-28T10:08:08.915Z,1990
2017-08-28T10:09:10.598Z,1960
2017-08-28T10:10:12.273Z,1910
2017-08-28T10:11:13.958Z,1895
2017-08-28T10:12:15.635Z,1860
2017-08-28T10:13:17.326Z,1835
2017-08-28T10:14:19.023Z,1855
2017-08-28T10:15:20.706Z,1830
2017-08-28T10:16:22.380Z,1770
2017-08-28T10:17:24.076Z,1750
2017-08-28T10:18:25.768Z,1730
2017-08-28T10:19:27.440Z,1705
2017-08-28T10:20:29.121Z,1665
2017-08-28T10:21:30.794Z,1610
2017-08-28T10:22:32.477Z,1510
2017-08-28T10:23:34.154Z,1415
2017-08-28T10:24:35.837Z,1515
2017-08-28T10:25:37.534Z,1480
2017-08-28T10:26:39.198Z,1455
2017-08-28T10:27:40.881Z,1430
2017-08-28T10:28:42.561Z,1400
2017-08-28T10:29:44.241Z,1390
2017-08-28T10:30:45.962Z,1390
2017-08-28T10:31:47.641Z,1380
2017-08-28T10:32:49.324Z,1390
2017-08-28T10:33:50.999Z,1525
2017-08-28T10:34:52.680Z,2995
2017-08-28T10:35:54.362Z,3945
2017-08-28T10:36:56.043Z,3555
2017-08-28T10:37:57.747Z,3400
2017-08-28T10:38:59.428Z,3625
2017-08-28T10:40:01.103Z,3650
2017-08-28T10:41:02.785Z,3560
2017-08-28T10:42:04.463Z,3485
2017-08-28T10:43:06.135Z,3360
2017-08-28T10:44:07.831Z,3575
2017-08-28T10:45:09.498Z,3280
2017-08-28T10:46:11.182Z,3350
2017-08-28T10:47:12.859Z,3455
2017-08-28T10:48:14.539Z,3470
2017-08-28T10:49:16.211Z,3475
2017-08-28T10:50:17.889Z,3355
2017-08-28T10:51:19.576Z,3315
2017-08-28T10:52:21.268Z,3470
2017-08-28T10:53:22.953Z,3495
2017-08-28T10:54:24.644Z,3355
2017-08-28T10:55:26.321Z,3320
2017-08-28T10:56:28.002Z,3505
2017-08-28T10:57:29.679Z,3485
2017-08-28T10:58:31.356Z,3465
2017-08-28T10:59:33.036Z,3365
2017-08-28T11:00:34.724Z,3520
2017-08-28T11:01:36.402Z,3430
2017-08-28T11:02:38.093Z,3380
2017-08-28T11:03:39.773Z,3460
2017-08-28T11:04:41.458Z,3530
2017-08-28T11:05:43.171Z,3580
2017-08-28T11:06:44.858Z,3570
2017-08-28T11:07:46.543Z,3310
2017-08-28T11:08:48.236Z,3280
2017-08-28T11:09:49.919Z,3300
2017-08-28T11:10:51.675Z,3210
2017-08-28T11:11:53.360Z,3185
2017-08-28T11:12:55.048Z,3090
2017-08-28T11:13:56.738Z,3245
2017-08-28T11:14:58.593Z,3345
2017-08-28T11:16:00.279Z,3230
2017-08-28T11:17:01.952Z,3375
2017-08-28T11:18:03.636Z,3320
2017-08-28T11:19:05.378Z,3290
2017-08-28T11:20:07.065Z,3320
2017-08-28T11:21:08.754Z,3355
2017-08-28T11:22:10.426Z,3310
2017-08-28T11:23:12.105Z,3370
2017-08-28T11:24:13.787Z,3270
2017-08-28T11:25:15.469Z,3230
2017-08-28T11:26:17.198Z,3250
2017-08-28T11:27:18.841Z,3390
2017-08-28T11:28:20.526Z,3350
2017-08-28T11:29:22.210Z,3345
2017-08-28T11:30:23.897Z,3455
2017-08-28T11:31:25.587Z,3400
2017-08-28T11:32:27.268Z,3305
2017-08-28T11:33:29.004Z,3310
2017-08-28T11:34:30.684Z,3330
2017-08-28T11:35:32.410Z,3195
2017-08-28T11:36:34.092Z,3275
2017-08-28T11:37:35.777Z,3305
2017-08-28T11:38:37.456Z,3220
2017-08-28T11:39:39.891Z,3355
2017-08-28T11:40:41.568Z,3370
2017-08-28T11:41:43.887Z,3270
2017-08-28T11:42:45.561Z,3280
2017-08-28T11:43:47.471Z,3300
2017-08-28T11:44:49.291Z,3360
2017-08-28T11:45:51.085Z,3220
2017-08-28T11:46:52.760Z,3180
2017-08-28T11:47:54.918Z,3065
2017-08-28T11:48:56.599Z,3090
2017-08-28T11:49:58.442Z,3185
2017-08-28T11:51:00.947Z,3130
2017-08-28T11:52:03.146Z,3140
2017-08-28T11:53:04.819Z,3135
2017-08-28T11:54:06.518Z,3210
2017-08-28T11:55:08.224Z,3265
2017-08-28T11:56:09.893Z,3200
2017-08-28T11:57:11.575Z,3235
2017-08-28T11:58:13.602Z,3305
2017-08-28T11:59:15.290Z,3235
2017-08-28T12:00:17.218Z,3285
2017-08-28T12:02:28.515Z,3335
2017-08-28T12:03:30.296Z,3175
2017-08-28T12:04:31.974Z,3175
2017-08-28T12:05:33.893Z,3150
2017-08-28T12:06:35.603Z,3125
2017-08-28T12:07:37.393Z,3175
2017-08-28T12:08:39.309Z,3205
2017-08-28T12:09:40.988Z,3105
2017-08-28T12:10:42.838Z,3085
2017-08-28T12:11:44.574Z,3150
2017-08-28T12:12:46.825Z,2205
2017-08-28T12:13:48.501Z,925
2017-08-28T12:14:51.026Z,480
2017-08-28T12:15:52.601Z,455
2017-08-28T12:16:54.612Z,490
2017-08-28T12:17:56.615Z,1315
2017-08-28T12:18:58.502Z,2805
2017-08-28T12:20:01.874Z,3000
2017-08-28T12:21:03.544Z,3060
2017-08-28T12:22:05.307Z,3010
2017-08-28T12:23:07.029Z,3075
2017-08-28T12:24:10.631Z,2990
2017-08-28T12:25:13.191Z,3005
2017-08-28T12:26:14.934Z,3010
2017-08-28T12:27:17.441Z,3000
2017-08-28T12:28:19.401Z,2955
2017-08-28T12:29:21.859Z,2890
2017-08-28T12:30:24.103Z,2915
2017-08-28T12:31:25.893Z,2955
2017-08-28T12:32:27.650Z,2930
2017-08-28T12:33:29.980Z,2815
2017-08-28T12:34:32.032Z,2810
2017-08-28T12:35:33.790Z,2955
2017-08-28T12:36:35.585Z,2940
2017-08-28T12:37:37.317Z,2830
2017-08-28T12:38:39.090Z,2865
2017-08-28T12:39:40.812Z,2970
2017-08-28T12:40:42.519Z,2935
2017-08-28T12:41:44.240Z,2840
2017-08-28T12:42:46.056Z,2835
2017-08-28T12:43:47.792Z,2770
2017-08-28T12:44:49.512Z,2810
2017-08-28T12:45:51.256Z,2825
2017-08-28T12:46:53.008Z,2845
2017-08-28T12:47:54.726Z,2805
2017-08-28T12:48:56.405Z,2705
2017-08-28T12:49:58.130Z,2715
2017-08-28T12:50:59.818Z,2665
2017-08-28T12:52:01.507Z,2740
2017-08-28T12:53:03.199Z,2725
2017-08-28T12:55:42.626Z,2580
2017-08-28T12:56:59.336Z,2550
2017-08-28T12:58:01.053Z,2570
2017-08-28T12:59:02.781Z,2640
2017-08-28T13:00:04.603Z,2705
2017-08-28T13:01:06.379Z,2685
2017-08-28T13:02:08.107Z,2565
2017-08-28T13:03:09.866Z,2565
2017-08-28T13:04:11.714Z,2560
2017-08-28T13:05:13.461Z,2640
2017-08-28T13:06:15.192Z,2625
2017-08-28T13:07:16.954Z,2555
2017-08-28T13:08:18.694Z,2525
2017-08-28T13:09:20.422Z,2535
2017-08-28T13:10:22.167Z,2480
2017-08-28T13:11:23.942Z,2570
2017-08-28T13:12:25.700Z,2630
2017-08-28T13:13:27.509Z,2565
2017-08-28T13:14:29.231Z,2580
2017-08-28T13:15:31.002Z,2600
2017-08-28T13:16:32.766Z,2480
2017-08-28T13:17:34.479Z,2570
2017-08-28T13:18:36.333Z,2565
2017-08-28T13:19:39.804Z,2525
2017-08-28T13:20:41.511Z,2520
2017-08-28T13:21:43.266Z,2610
2017-08-28T13:22:45.002Z,2645
2017-08-28T13:23:46.841Z,2605
2017-08-28T13:24:48.622Z,2510
2017-08-28T13:25:50.397Z,2465
2017-08-28T13:26:52.103Z,2535
2017-08-28T13:27:53.791Z,2455
2017-08-28T13:28:55.485Z,2370
2017-08-28T13:29:57.325Z,2505
2017-08-28T13:30:59.013Z,2435
2017-08-28T13:32:01.560Z,2395
2017-08-28T13:33:03.315Z,2440
2017-08-28T13:34:05.062Z,2430
2017-08-28T13:35:07.298Z,2385
2017-08-28T13:36:11.505Z,2255
2017-08-28T13:37:13.228Z,2475
2017-08-28T13:38:16.754Z,2420
2017-08-28T13:39:19.087Z,2440
2017-08-28T13:40:20.757Z,2405
2017-08-28T13:41:22.457Z,2370
2017-08-28T13:42:24.501Z,2355
2017-08-28T13:43:26.256Z,2420
2017-08-28T13:44:27.954Z,2455
2017-08-28T13:45:29.681Z,2335
2017-08-28T13:46:31.427Z,2330
2017-08-28T13:47:33.166Z,2315
2017-08-28T13:48:34.911Z,2325
2017-08-28T13:49:36.657Z,2310
2017-08-28T13:50:38.386Z,555
2017-08-28T13:51:40.115Z,2170
2017-08-28T13:52:41.889Z,2250
2017-08-28T13:53:44.369Z,2235
2017-08-28T13:54:46.204Z,2215
2017-08-28T13:55:47.969Z,2245
2017-08-28T14:01:57.252Z,2135
2017-08-28T14:02:58.929Z,2200
2017-08-28T14:04:00.622Z,2180
2017-08-28T14:05:02.342Z,2225
2017-08-28T14:06:04.027Z,2020
2017-08-28T14:07:05.702Z,1935
2017-08-28T14:08:07.411Z,1830
2017-08-28T14:09:09.119Z,1895
2017-08-28T14:10:10.879Z,1990
2017-08-28T14:11:12.623Z,1810
2017-08-28T14:12:14.311Z,1840
2017-08-28T14:13:15.979Z,2250
2017-08-28T14:14:17.655Z,2310
2017-08-28T14:15:19.341Z,2400
2017-08-28T14:16:21.025Z,2680
2017-08-28T14:17:22.705Z,3235
2017-08-28T14:18:24.384Z,3585
2017-08-28T14:19:26.060Z,3965
2017-08-28T14:20:27.742Z,4095
2017-08-28T14:21:29.433Z,2760
2017-08-28T14:22:31.856Z,1170
2017-08-28T14:23:33.527Z,800
2017-08-28T14:24:35.200Z,675
2017-08-28T14:25:36.907Z,750
2017-08-28T14:26:38.877Z,745
2017-08-28T14:27:40.629Z,725
2017-08-28T14:28:42.305Z,725
2017-08-28T14:29:44.041Z,730
2017-08-28T14:30:45.723Z,735
2017-08-28T14:31:47.404Z,730
2017-08-28T14:32:49.212Z,730
2017-08-28T14:33:50.925Z,735
2017-08-28T14:34:52.621Z,740
2017-08-28T14:35:54.301Z,740
2017-08-28T14:36:55.979Z,760
2017-08-28T14:37:57.661Z,765
2017-08-28T14:38:59.341Z,705
2017-08-28T14:40:01.025Z,715
2017-08-28T14:41:02.701Z,735
2017-08-28T14:42:04.378Z,740
2017-08-28T14:43:06.056Z,765
2017-08-28T14:44:07.734Z,780
2017-08-28T14:45:09.423Z,755
2017-08-28T14:46:11.106Z,730